Time;durP1;ratioP1;P1;durP2;ratioP2;P2;SDS_P1;SDS_P2;PMS_P1;PMS_P2;Temp;Humidity;BMP_temperature;BMP_pressure;BME280_temperature;BME280_humidity;BME280_pressure;Samples;Min_cycle;Max_cycle;Signal;HPM_P1;HPM_P2
2021/06/22 00:01:59;;;;;;;15.07;5.03;;;13.20;99.90;;;;;;6156227;23;20025;-83
2021/06/22 00:04:26;;;;;;;15.52;5.28;;;13.10;99.90;;;;;;6155826;23;20132;-82
2021/06/22 00:06:53;;;;;;;12.95;5.43;;;13.10;99.90;;;;;;6153603;23;20063;-80
2021/06/22 00:09:19;;;;;;;17.85;5.20;;;13.20;99.90;;;;;;6182188;23;20017;-82
2021/06/22 00:11:46;;;;;;;12.35;5.20;;;13.10;99.90;;;;;;6168272;23;20432;-82
2021/06/22 00:14:15;;;;;;;12.95;5.03;;;13.20;99.90;;;;;;6181512;23;20068;-82
2021/06/22 00:16:42;;;;;;;15.20;5.45;;;13.30;99.90;;;;;;6166942;23;20394;-82
2021/06/22 00:19:09;;;;;;;12.88;5.78;;;13.20;99.90;;;;;;6182128;23;20021;-81
2021/06/22 00:21:36;;;;;;;14.15;5.85;;;13.30;99.90;;;;;;6157432;23;20056;-81
2021/06/22 00:24:04;;;;;;;14.32;6.05;;;13.40;99.90;;;;;;6156957;23;20017;-80
2021/06/22 00:26:31;;;;;;;16.25;5.47;;;13.30;99.90;;;;;;6183589;23;20024;-81
2021/06/22 00:28:57;;;;;;;14.63;6.07;;;13.30;99.90;;;;;;6156537;23;20447;-81
2021/06/22 00:31:26;;;;;;;12.52;6.05;;;13.30;99.90;;;;;;6156465;23;20083;-80
2021/06/22 00:33:52;;;;;;;19.67;6.40;;;13.20;99.90;;;;;;6183031;23;20052;-80
2021/06/22 00:36:19;;;;;;;18.55;7.07;;;13.10;99.90;;;;;;6157830;23;20021;-81
2021/06/22 00:38:46;;;;;;;21.33;6.88;;;13.10;99.90;;;;;;6156383;23;20068;-80
2021/06/22 00:41:13;;;;;;;15.27;7.57;;;13.20;99.90;;;;;;6155610;23;20109;-80
2021/06/22 00:43:40;;;;;;;13.27;6.93;;;13.20;99.90;;;;;;6156476;23;20025;-80
2021/06/22 00:48:43;;;;;;;13.88;6.55;;;13.20;99.90;;;;;;6216222;23;20028;-86
2021/06/22 00:51:10;;;;;;;19.23;6.93;;;16.10;99.90;;;;;;6190723;23;20013;-86
2021/06/22 00:53:38;;;;;;;13.55;7.45;;;12.80;99.90;;;;;;6189863;23;20075;-87
2021/06/22 00:56:05;;;;;;;15.32;7.32;;;14.40;99.90;;;;;;6190364;23;20079;-87
2021/06/22 00:58:31;;;;;;;19.17;7.63;;;13.00;99.90;;;;;;6190193;23;20036;-87
2021/06/22 01:01:00;;;;;;;17.60;7.10;;;12.90;99.90;;;;;;6163767;23;20510;-86
2021/06/22 01:03:27;;;;;;;13.35;7.40;;;12.90;99.90;;;;;;6187938;23;20486;-88
2021/06/22 01:05:55;;;;;;;19.00;7.22;;;12.90;99.90;;;;;;6190484;23;20020;-87
2021/06/22 01:08:22;;;;;;;12.40;6.78;;;13.00;99.90;;;;;;6189344;23;20017;-85
2021/06/22 01:10:49;;;;;;;15.98;7.32;;;13.00;99.90;;;;;;6217487;23;20016;-87
2021/06/22 01:13:16;;;;;;;13.82;7.75;;;13.10;99.90;;;;;;6189080;23;20075;-87
2021/06/22 01:15:43;;;;;;;12.30;7.35;;;13.10;99.90;;;;;;6215222;23;20017;-86
2021/06/22 01:18:10;;;;;;;17.20;7.07;;;13.00;99.90;;;;;;6189899;23;20024;-87
2021/06/22 01:20:37;;;;;;;20.75;7.50;;;13.00;99.90;;;;;;6188969;23;20086;-85
2021/06/22 01:23:07;;;;;;;16.50;7.53;;;13.10;99.90;;;;;;6190663;23;20024;-85
2021/06/22 01:25:47;;;;;;;16.05;7.57;;;13.10;99.90;;;;;;6099019;23;20357;-85
2021/06/22 01:28:14;;;;;;;16.17;7.85;;;13.00;99.90;;;;;;6146510;23;20022;-84
2021/06/22 01:30:41;;;;;;;15.45;7.35;;;13.10;99.90;;;;;;6142739;23;20092;-86
2021/06/22 01:33:08;;;;;;;21.63;7.97;;;12.80;99.90;;;;;;6122245;23;20022;-86
2021/06/22 01:35:35;;;;;;;18.45;7.20;;;12.60;99.90;;;;;;6074840;23;20022;-86
2021/06/22 01:38:06;;;;;;;25.10;7.95;;;12.60;99.90;;;;;;6123581;23;20356;-87
2021/06/22 01:40:42;;;;;;;18.92;7.85;;;12.50;99.90;;;;;;6120839;23;20028;-86
2021/06/22 01:43:09;;;;;;;16.50;7.30;;;12.50;99.90;;;;;;6146954;23;20025;-87
2021/06/22 01:45:36;;;;;;;20.60;7.88;;;12.50;99.90;;;;;;6121998;23;20032;-86
2021/06/22 01:48:03;;;;;;;17.92;7.95;;;12.50;99.90;;;;;;6123003;23;20673;-87
2021/06/22 01:50:30;;;;;;;18.00;8.07;;;12.50;99.90;;;;;;6120977;23;20061;-86
2021/06/22 01:52:57;;;;;;;14.60;7.40;;;12.50;99.90;;;;;;6123333;23;20080;-86
2021/06/22 01:55:43;;;;;;;19.88;8.38;;;12.40;99.90;;;;;;6124257;23;20025;-87
2021/06/22 01:58:12;;;;;;;17.70;8.18;;;12.40;99.90;;;;;;6098873;23;20021;-85
2021/06/22 02:00:41;;;;;;;18.45;8.10;;;12.50;99.90;;;;;;6123816;23;20025;-86
2021/06/22 02:03:13;;;;;;;21.08;7.40;;;12.50;99.90;;;;;;6164753;23;20522;-86
2021/06/22 02:05:40;;;;;;;11.23;7.20;;;12.50;99.90;;;;;;6184776;23;20017;-85
2021/06/22 02:08:07;;;;;;;14.73;6.75;;;12.60;99.90;;;;;;6209070;23;20056;-86
2021/06/22 02:10:35;;;;;;;18.88;6.97;;;12.60;99.90;;;;;;6186594;23;20104;-87
2021/06/22 02:13:03;;;;;;;12.95;7.10;;;12.60;99.90;;;;;;6220122;23;20017;-86
2021/06/22 02:15:30;;;;;;;17.33;6.38;;;12.60;99.90;;;;;;6185448;23;20029;-87
2021/06/22 02:17:57;;;;;;;11.93;7.22;;;12.50;99.90;;;;;;6209138;23;20032;-86
2021/06/22 02:20:24;;;;;;;17.00;7.18;;;12.40;99.90;;;;;;6185368;23;20032;-86
2021/06/22 02:22:51;;;;;;;16.13;7.10;;;12.50;99.90;;;;;;6183923;23;20013;-86
2021/06/22 02:25:18;;;;;;;15.25;7.28;;;12.50;99.90;;;;;;6210820;23;20510;-86
2021/06/22 02:27:47;;;;;;;14.10;6.05;;;12.60;99.90;;;;;;6185188;23;20032;-87
2021/06/22 02:30:16;;;;;;;15.55;5.95;;;12.70;99.90;;;;;;6185402;23;20009;-87
2021/06/22 02:32:43;;;;;;;13.40;5.90;;;12.70;99.90;;;;;;6210272;23;20412;-86
2021/06/22 02:35:13;;;;;;;10.63;5.93;;;12.70;99.90;;;;;;6210334;23;20021;-86
2021/06/22 02:37:42;;;;;;;11.38;6.25;;;12.80;99.90;;;;;;6184279;23;20035;-87
2021/06/22 02:40:11;;;;;;;16.60;6.22;;;12.70;99.90;;;;;;6158929;23;20017;-87
2021/06/22 02:42:38;;;;;;;16.27;5.72;;;12.80;99.90;;;;;;6186034;23;20025;-85
2021/06/22 02:45:08;;;;;;;12.73;5.75;;;12.70;99.90;;;;;;6184762;23;20024;-86
2021/06/22 02:47:35;;;;;;;15.15;5.53;;;12.70;99.90;;;;;;6210377;23;20017;-86
2021/06/22 02:50:03;;;;;;;17.83;5.35;;;12.70;99.90;;;;;;6220070;23;20021;-86
2021/06/22 02:52:29;;;;;;;14.20;5.07;;;12.90;99.90;;;;;;6185213;23;20017;-87
2021/06/22 02:54:56;;;;;;;14.93;5.40;;;12.70;99.90;;;;;;6211201;23;20021;-87
2021/06/22 02:57:23;;;;;;;14.48;4.75;;;12.70;99.90;;;;;;6210355;23;20029;-86
2021/06/22 02:59:50;;;;;;;13.07;5.10;;;12.80;99.90;;;;;;6159505;23;20087;-86
2021/06/22 03:02:18;;;;;;;12.13;5.10;;;12.90;99.90;;;;;;6219802;23;20033;-85
2021/06/22 03:04:45;;;;;;;16.75;5.13;;;13.10;99.90;;;;;;6210341;23;20017;-85
2021/06/22 03:07:12;;;;;;;11.63;5.20;;;13.20;99.90;;;;;;6211061;23;20440;-86
2021/06/22 03:09:39;;;;;;;12.35;4.82;;;13.10;99.90;;;;;;6210502;23;20797;-87
2021/06/22 03:12:07;;;;;;;16.90;5.38;;;13.30;99.90;;;;;;6211395;23;20020;-87
2021/06/22 03:14:34;;;;;;;10.35;4.70;;;13.20;99.90;;;;;;6187174;23;20403;-86
2021/06/22 03:17:01;;;;;;;17.60;5.18;;;13.30;99.90;;;;;;6209944;23;20424;-87
2021/06/22 03:19:30;;;;;;;10.07;4.25;;;13.30;99.90;;;;;;6186375;23;20017;-87
2021/06/22 03:21:56;;;;;;;13.43;5.13;;;13.40;99.90;;;;;;6187985;23;20017;-87
2021/06/22 03:24:23;;;;;;;16.48;5.03;;;13.30;99.90;;;;;;6211352;23;20021;-87
2021/06/22 03:26:50;;;;;;;11.80;4.78;;;13.30;99.90;;;;;;6185349;23;20013;-86
2021/06/22 03:29:19;;;;;;;11.02;4.70;;;13.30;99.90;;;;;;6198119;23;20071;-86
2021/06/22 03:31:46;;;;;;;11.23;4.80;;;13.30;99.90;;;;;;6210740;23;20017;-87
2021/06/22 03:34:13;;;;;;;13.50;5.20;;;13.30;99.90;;;;;;6209048;23;20116;-86
2021/06/22 03:36:42;;;;;;;13.85;5.32;;;13.40;99.90;;;;;;6210387;23;20017;-87
2021/06/22 03:39:09;;;;;;;13.65;5.43;;;13.40;99.90;;;;;;6211202;23;20028;-86
2021/06/22 03:41:36;;;;;;;14.73;5.75;;;13.40;99.90;;;;;;6212009;23;20396;-86
2021/06/22 03:44:04;;;;;;;15.55;5.32;;;13.40;99.90;;;;;;6209968;23;20460;-86
2021/06/22 03:46:31;;;;;;;14.98;5.65;;;13.30;99.90;;;;;;6185405;23;20044;-86
2021/06/22 03:48:58;;;;;;;12.07;5.18;;;13.20;99.90;;;;;;6136358;23;20096;-87
2021/06/22 03:51:25;;;;;;;12.02;5.93;;;13.20;99.90;;;;;;6160923;23;20017;-88
2021/06/22 03:53:53;;;;;;;15.25;5.72;;;13.00;99.90;;;;;;6161845;23;20025;-87
2021/06/22 03:56:20;;;;;;;17.10;6.70;;;13.00;99.90;;;;;;6161958;23;20047;-86
2021/06/22 03:58:47;;;;;;;12.70;6.63;;;13.00;99.90;;;;;;6161542;23;20161;-87
2021/06/22 04:01:14;;;;;;;17.77;6.90;;;12.90;99.90;;;;;;6134735;23;20020;-86
2021/06/22 04:03:41;;;;;;;15.75;6.13;;;12.80;99.90;;;;;;6161570;23;20021;-86
2021/06/22 04:06:08;;;;;;;16.17;6.88;;;12.80;99.90;;;;;;6136813;23;20456;-88
2021/06/22 04:08:36;;;;;;;14.27;7.07;;;14.00;99.90;;;;;;6160663;23;20021;-88
2021/06/22 04:11:04;;;;;;;18.77;8.15;;;12.80;99.90;;;;;;6161261;23;20071;-86
2021/06/22 04:13:36;;;;;;;16.17;7.90;;;12.80;99.90;;;;;;6138287;23;20437;-88
2021/06/22 04:16:04;;;;;;;19.20;8.77;;;12.90;99.90;;;;;;6161292;23;20075;-88
2021/06/22 04:18:31;;;;;;;17.40;8.45;;;13.00;99.90;;;;;;6188915;23;20017;-87
2021/06/22 04:20:57;;;;;;;20.92;9.25;;;12.90;99.90;;;;;;6161390;23;20071;-86
2021/06/22 04:23:24;;;;;;;16.88;9.27;;;13.00;99.90;;;;;;6159925;23;20075;-87
2021/06/22 04:25:51;;;;;;;24.30;9.35;;;13.00;99.90;;;;;;6161186;23;20384;-88
2021/06/22 04:28:20;;;;;;;16.60;9.20;;;13.00;99.90;;;;;;6158439;23;20494;-88
2021/06/22 04:30:47;;;;;;;17.83;9.20;;;13.10;99.90;;;;;;6160253;23;20013;-87
2021/06/22 04:33:14;;;;;;;18.60;9.20;;;13.10;99.90;;;;;;6160663;23;20017;-87
2021/06/22 04:35:41;;;;;;;18.10;9.32;;;13.00;99.90;;;;;;6162007;23;20454;-86
2021/06/22 04:38:08;;;;;;;16.88;9.07;;;13.00;99.90;;;;;;6187804;23;20029;-87
2021/06/22 04:40:37;;;;;;;19.67;8.05;;;13.10;99.90;;;;;;6162224;23;20021;-87
2021/06/22 04:43:05;;;;;;;16.77;9.18;;;13.00;99.90;;;;;;6161293;23;20083;-88
2021/06/22 04:45:34;;;;;;;12.38;7.97;;;13.10;99.90;;;;;;6170651;23;20448;-88
2021/06/22 04:48:02;;;;;;;17.45;8.50;;;13.10;99.90;;;;;;6162130;23;20021;-87
2021/06/22 04:50:29;;;;;;;16.55;7.03;;;13.10;99.90;;;;;;6163379;23;20021;-87
2021/06/22 04:52:56;;;;;;;15.73;7.60;;;13.30;99.90;;;;;;6162453;23;20020;-88
2021/06/22 04:55:25;;;;;;;14.13;7.00;;;13.20;99.90;;;;;;6162230;23;20032;-87
2021/06/22 04:57:57;;;;;;;14.77;6.78;;;13.10;99.90;;;;;;6163268;23;20028;-88
2021/06/22 05:00:25;;;;;;;13.13;6.20;;;13.20;99.90;;;;;;6163584;23;20021;-87
2021/06/22 05:02:53;;;;;;;14.13;7.00;;;13.40;99.90;;;;;;6174355;23;20017;-87
2021/06/22 05:05:20;;;;;;;17.17;7.35;;;13.40;99.90;;;;;;6163934;23;20029;-87
2021/06/22 05:07:48;;;;;;;15.85;7.70;;;13.40;99.90;;;;;;6163806;23;20067;-88
2021/06/22 05:10:14;;;;;;;15.93;7.32;;;13.40;99.90;;;;;;6164586;23;20016;-89
2021/06/22 05:12:42;;;;;;;13.45;6.57;;;13.50;99.90;;;;;;6163674;23;20017;-89
2021/06/22 05:15:12;;;;;;;15.43;7.43;;;13.50;99.90;;;;;;6161565;23;20028;-89
2021/06/22 05:17:39;;;;;;;14.27;6.90;;;13.50;99.90;;;;;;6164193;23;20029;-88
2021/06/22 05:20:08;;;;;;;15.52;7.30;;;13.60;99.90;;;;;;6161251;23;20376;-88
2021/06/22 05:22:35;;;;;;;17.63;7.28;;;13.60;99.90;;;;;;6188799;23;20128;-88
2021/06/22 05:25:04;;;;;;;13.75;7.28;;;13.70;99.90;;;;;;6162355;23;20391;-90
2021/06/22 05:27:31;;;;;;;14.70;7.40;;;13.70;99.90;;;;;;6160825;23;20063;-88
2021/06/22 05:29:58;;;;;;;17.00;7.38;;;13.60;99.90;;;;;;6161309;23;20384;-87
2021/06/22 05:32:25;;;;;;;17.10;7.35;;;13.60;99.90;;;;;;6160981;23;20051;-90
2021/06/22 05:34:52;;;;;;;18.48;8.18;;;13.60;99.90;;;;;;6160478;23;20024;-89
2021/06/22 05:37:20;;;;;;;18.95;7.78;;;13.60;99.90;;;;;;6160371;23;20029;-87
2021/06/22 05:39:47;;;;;;;16.17;8.25;;;13.60;99.90;;;;;;6161979;23;20021;-89
2021/06/22 05:42:14;;;;;;;20.52;8.18;;;13.60;99.90;;;;;;6137999;23;20020;-87
2021/06/22 05:44:42;;;;;;;16.17;7.65;;;13.60;99.90;;;;;;6162318;23;20025;-89
2021/06/22 05:47:08;;;;;;;18.60;7.85;;;13.80;99.90;;;;;;6162513;23;20017;-89
2021/06/22 05:49:35;;;;;;;16.13;7.88;;;13.90;99.90;;;;;;6160913;23;20395;-89
2021/06/22 05:52:03;;;;;;;14.82;8.15;;;13.80;99.90;;;;;;6137986;23;20017;-88
2021/06/22 05:54:31;;;;;;;16.63;8.02;;;14.00;99.90;;;;;;6136645;23;20021;-89
2021/06/22 05:56:58;;;;;;;19.02;8.75;;;14.10;99.90;;;;;;6162699;23;20024;-89
2021/06/22 05:59:25;;;;;;;21.20;9.70;;;14.20;99.90;;;;;;6171501;23;20016;-89
2021/06/22 06:01:52;;;;;;;20.02;8.73;;;14.20;99.90;;;;;;6162502;23;20444;-89
2021/06/22 06:04:18;;;;;;;19.88;8.60;;;14.20;99.90;;;;;;6136364;23;20024;-90
2021/06/22 06:06:45;;;;;;;22.02;8.35;;;14.30;99.90;;;;;;6187432;23;20083;-89
2021/06/22 06:09:12;;;;;;;21.77;8.45;;;14.40;99.90;;;;;;6161972;23;20028;-89
2021/06/22 06:11:40;;;;;;;23.73;8.90;;;14.50;99.90;;;;;;6163850;23;20461;-89
2021/06/22 06:14:07;;;;;;;17.70;9.15;;;14.40;99.90;;;;;;6188330;23;20025;-90
2021/06/22 06:16:34;;;;;;;15.73;7.68;;;14.50;99.90;;;;;;6137176;23;20049;-89
2021/06/22 06:19:01;;;;;;;19.15;7.95;;;14.70;99.90;;;;;;6162271;23;20325;-88
2021/06/22 06:21:32;;;;;;;15.40;7.68;;;14.90;99.90;;;;;;6164011;23;20017;-90
2021/06/22 06:23:59;;;;;;;12.93;6.40;;;14.90;99.90;;;;;;6137989;23;20028;-89
2021/06/22 06:26:29;;;;;;;11.43;6.25;;;14.90;99.90;;;;;;6188815;23;20068;-89
2021/06/22 06:29:06;;;;;;;15.68;6.78;;;14.90;99.90;;;;;;6168068;23;20021;-85
2021/06/22 06:31:33;;;;;;;14.70;6.78;;;15.00;99.90;;;;;;6208435;23;20036;-88
2021/06/22 06:34:00;;;;;;;16.05;6.82;;;14.90;99.90;;;;;;6181641;23;20340;-87
2021/06/22 06:36:27;;;;;;;12.65;6.72;;;14.80;99.90;;;;;;6182622;23;20017;-87
2021/06/22 06:38:54;;;;;;;13.88;6.72;;;15.00;99.90;;;;;;6182964;23;20017;-87
2021/06/22 06:41:21;;;;;;;11.18;6.15;;;15.20;99.90;;;;;;6181845;23;20018;-86
2021/06/22 06:43:48;;;;;;;12.45;6.40;;;15.40;99.90;;;;;;6169070;23;20025;-88
2021/06/22 06:46:16;;;;;;;15.80;6.43;;;15.30;99.90;;;;;;6161410;23;20029;-88
2021/06/22 06:48:43;;;;;;;14.88;6.50;;;15.70;99.90;;;;;;6162100;23;20024;-88
2021/06/22 06:51:10;;;;;;;12.45;5.93;;;16.10;99.90;;;;;;6186548;23;20024;-85
2021/06/22 06:53:37;;;;;;;9.73;5.88;;;16.00;99.90;;;;;;6186505;23;20017;-90
2021/06/22 06:56:04;;;;;;;13.48;6.15;;;15.90;99.90;;;;;;6161354;23;20441;-89
2021/06/22 06:58:31;;;;;;;13.80;5.57;;;16.80;99.90;;;;;;6162355;23;20121;-87
2021/06/22 07:01:00;;;;;;;14.50;6.72;;;15.60;99.90;;;;;;6162193;23;20454;-87
2021/06/22 07:03:29;;;;;;;12.30;6.85;;;15.40;99.90;;;;;;6160236;23;20353;-88
2021/06/22 07:05:56;;;;;;;15.23;7.00;;;15.50;99.90;;;;;;6170729;23;20021;-88
2021/06/22 07:08:23;;;;;;;13.85;7.75;;;15.50;99.90;;;;;;6160872;23;20017;-88
2021/06/22 07:10:50;;;;;;;13.48;8.75;;;15.50;99.90;;;;;;6187637;23;20388;-89
2021/06/22 07:13:17;;;;;;;17.08;7.70;;;15.60;99.90;;;;;;6160864;23;20037;-89
2021/06/22 07:15:45;;;;;;;16.90;8.20;;;15.90;99.90;;;;;;6161382;23;20020;-88
2021/06/22 07:18:12;;;;;;;21.42;7.88;;;16.00;99.90;;;;;;6187500;23;20079;-86
2021/06/22 07:20:42;;;;;;;16.55;7.40;;;16.00;99.90;;;;;;6161589;23;20032;-88
2021/06/22 07:23:09;;;;;;;17.95;8.10;;;15.80;99.90;;;;;;6161143;23;20056;-88
2021/06/22 07:25:36;;;;;;;17.05;7.53;;;15.70;99.90;;;;;;6160636;23;20017;-88
2021/06/22 07:28:03;;;;;;;15.88;7.35;;;15.70;99.90;;;;;;6161038;23;20071;-88
2021/06/22 07:30:30;;;;;;;14.48;7.00;;;15.80;99.90;;;;;;6159101;23;20484;-89
2021/06/22 07:32:58;;;;;;;18.08;7.07;;;15.80;99.90;;;;;;6157774;23;20029;-88
2021/06/22 07:35:25;;;;;;;13.93;6.30;;;16.10;99.90;;;;;;6161048;23;20029;-88
2021/06/22 07:37:55;;;;;;;9.73;5.97;;;16.10;99.90;;;;;;6160783;23;20044;-89
2021/06/22 07:40:21;;;;;;;11.20;5.63;;;16.10;99.90;;;;;;6160562;23;20076;-89
2021/06/22 07:42:48;;;;;;;16.00;6.10;;;15.90;99.90;;;;;;6161279;23;20014;-86
2021/06/22 07:45:16;;;;;;;13.98;5.63;;;15.80;99.90;;;;;;6161008;23;20020;-89
2021/06/22 07:47:43;;;;;;;13.98;5.93;;;15.70;99.90;;;;;;6173464;23;20021;-89
2021/06/22 07:50:11;;;;;;;10.27;5.43;;;15.90;99.90;;;;;;6184834;23;20025;-87
2021/06/22 07:52:38;;;;;;;16.42;6.20;;;15.60;99.90;;;;;;6210225;23;20392;-85
2021/06/22 07:55:13;;;;;;;12.82;6.20;;;15.40;99.90;;;;;;6184373;23;20025;-87
2021/06/22 07:57:42;;;;;;;13.65;5.38;;;15.20;99.90;;;;;;6185369;23;20356;-88
2021/06/22 08:00:38;;;;;;;11.18;5.15;;;15.30;99.90;;;;;;6209479;23;20495;-87
2021/06/22 08:03:05;;;;;;;9.93;5.35;;;15.40;99.90;;;;;;6184891;23;20021;-87
2021/06/22 08:05:32;;;;;;;11.73;5.50;;;15.40;99.90;;;;;;6209522;23;20017;-86
2021/06/22 08:07:59;;;;;;;11.48;4.75;;;15.50;99.90;;;;;;6185631;23;20071;-86
2021/06/22 08:10:27;;;;;;;9.82;5.00;;;15.50;99.90;;;;;;6218521;23;20016;-89
2021/06/22 08:12:54;;;;;;;9.85;5.05;;;15.40;99.90;;;;;;6183494;23;20452;-88
2021/06/22 08:15:21;;;;;;;11.93;4.93;;;15.50;99.90;;;;;;6183076;23;20025;-87
2021/06/22 08:17:49;;;;;;;11.23;4.68;;;15.50;99.90;;;;;;6185050;23;20017;-89
2021/06/22 08:20:16;;;;;;;11.85;4.85;;;15.60;99.90;;;;;;6208217;23;20088;-87
2021/06/22 08:22:44;;;;;;;9.63;4.43;;;15.60;99.90;;;;;;6186074;23;20036;-87
2021/06/22 08:25:12;;;;;;;13.15;5.20;;;15.60;99.90;;;;;;6159218;23;20025;-88
2021/06/22 08:27:40;;;;;;;12.30;4.50;;;15.70;99.90;;;;;;6209917;23;20017;-86
2021/06/22 08:30:08;;;;;;;8.77;4.10;;;15.80;99.90;;;;;;6209452;23;20024;-87
2021/06/22 08:32:35;;;;;;;10.75;4.45;;;16.10;99.90;;;;;;6210430;23;20024;-87
2021/06/22 08:35:02;;;;;;;10.48;4.13;;;16.30;99.90;;;;;;6184881;23;20021;-88
2021/06/22 08:37:29;;;;;;;10.85;4.35;;;16.30;99.90;;;;;;6185652;23;20506;-89
2021/06/22 08:39:56;;;;;;;11.10;4.80;;;16.30;99.90;;;;;;6186024;23;20020;-89
2021/06/22 08:42:24;;;;;;;12.82;4.57;;;16.30;99.90;;;;;;6160248;23;20511;-87
2021/06/22 08:44:52;;;;;;;11.18;4.20;;;16.60;99.90;;;;;;6209452;23;20879;-89
2021/06/22 08:47:22;;;;;;;11.20;4.63;;;16.60;99.90;;;;;;6184292;23;20017;-87
2021/06/22 08:49:52;;;;;;;8.32;4.05;;;16.80;99.90;;;;;;6185183;23;20052;-87
2021/06/22 08:52:23;;;;;;;8.25;3.60;;;16.70;99.90;;;;;;6209930;23;20028;-87
2021/06/22 08:54:50;;;;;;;9.45;3.67;;;16.60;99.90;;;;;;6208648;23;20020;-88
2021/06/22 08:57:17;;;;;;;7.70;3.97;;;16.60;99.90;;;;;;6184466;23;20021;-88
2021/06/22 08:59:44;;;;;;;14.75;4.15;;;16.30;99.90;;;;;;6184428;23;20021;-88
2021/06/22 09:02:13;;;;;;;7.85;4.03;;;16.50;99.90;;;;;;6185561;23;20360;-89
2021/06/22 09:04:40;;;;;;;13.23;3.77;;;16.80;99.90;;;;;;6219027;23;20077;-87
2021/06/22 09:07:07;;;;;;;11.70;4.63;;;17.20;99.90;;;;;;6210026;23;20417;-90
2021/06/22 09:09:35;;;;;;;8.27;4.05;;;17.30;99.90;;;;;;6209250;23;20088;-88
2021/06/22 09:12:07;;;;;;;10.93;4.57;;;17.20;99.90;;;;;;6160143;23;20009;-88
2021/06/22 09:14:35;;;;;;;16.45;4.57;;;17.20;99.90;;;;;;6210236;23;20056;-89
2021/06/22 09:17:03;;;;;;;10.32;4.63;;;17.20;99.90;;;;;;6206281;23;20101;-88
2021/06/22 09:19:31;;;;;;;10.82;4.70;;;16.90;99.90;;;;;;6175330;23;20547;-89
2021/06/22 09:22:14;;;;;;;10.70;5.05;;;16.70;99.90;;;;;;6207796;23;20071;-88
2021/06/22 09:25:00;;;;;;;11.80;5.13;;;16.40;99.90;;;;;;6182802;23;20028;-88
2021/06/22 09:27:44;;;;;;;9.77;4.97;;;16.50;99.90;;;;;;6185371;23;20437;-87
2021/06/22 09:30:11;;;;;;;10.73;5.40;;;16.30;99.90;;;;;;6182623;23;20031;-90
2021/06/22 09:32:40;;;;;;;10.98;5.07;;;16.40;99.90;;;;;;6207368;23;20009;-89
2021/06/22 09:35:23;;;;;;;15.88;5.72;;;16.70;99.90;;;;;;6207484;23;20456;-89
2021/06/22 09:37:53;;;;;;;8.20;4.53;;;16.90;99.90;;;;;;6178266;23;20040;-88
2021/06/22 09:40:24;;;;;;;7.45;4.05;;;17.10;99.90;;;;;;6207251;23;20020;-87
2021/06/22 09:42:53;;;;;;;10.07;4.45;;;17.30;99.90;;;;;;6183452;23;20105;-89
2021/06/22 09:45:21;;;;;;;11.13;4.38;;;17.60;99.90;;;;;;6207458;23;20021;-89
2021/06/22 09:47:49;;;;;;;9.50;4.55;;;17.70;99.90;;;;;;6207845;23;20107;-87
2021/06/22 09:50:37;;;;;;;10.18;4.20;;;17.60;99.90;;;;;;6208003;23;20072;-89
2021/06/22 09:53:24;;;;;;;10.25;4.63;;;17.70;99.90;;;;;;6181575;23;20024;-87
2021/06/22 09:55:51;;;;;;;11.18;4.60;;;17.70;99.90;;;;;;6181840;23;20052;-89
2021/06/22 09:58:42;;;;;;;9.80;4.93;;;17.60;99.90;;;;;;6183077;23;20021;-89
2021/06/22 10:01:26;;;;;;;11.18;5.45;;;17.70;99.90;;;;;;6158078;23;20024;-88
2021/06/22 10:03:55;;;;;;;13.30;5.45;;;17.50;99.90;;;;;;6206365;23;20025;-87
2021/06/22 10:06:39;;;;;;;13.65;5.20;;;17.60;99.90;;;;;;6182183;23;20036;-88
2021/06/22 10:09:06;;;;;;;12.23;5.07;;;17.90;99.90;;;;;;6207972;23;20021;-86
2021/06/22 10:11:35;;;;;;;11.35;5.28;;;18.00;99.90;;;;;;6207564;23;20021;-88
2021/06/22 10:14:05;;;;;;;11.00;5.25;;;17.90;99.90;;;;;;6182759;23;20120;-88
2021/06/22 10:16:33;;;;;;;8.13;5.22;;;18.00;99.90;;;;;;6207444;23;20408;-90
2021/06/22 10:19:03;;;;;;;8.98;4.43;;;17.90;99.90;;;;;;6207001;23;20021;-87
2021/06/22 10:21:32;;;;;;;10.25;4.68;;;17.70;99.90;;;;;;6181797;23;20092;-87
2021/06/22 10:24:01;;;;;;;8.90;5.40;;;17.80;99.90;;;;;;6206244;23;20064;-89
2021/06/22 10:26:29;;;;;;;9.75;5.03;;;17.80;99.90;;;;;;6181907;23;20476;-90
2021/06/22 10:28:58;;;;;;;10.52;5.40;;;17.70;99.90;;;;;;6206964;23;20026;-87
2021/06/22 10:31:26;;;;;;;9.40;5.50;;;17.10;99.90;;;;;;6205883;23;20495;-89
2021/06/22 10:33:53;;;;;;;9.75;4.85;;;17.10;99.90;;;;;;6206716;23;20017;-89
2021/06/22 10:36:25;;;;;;;10.23;4.93;;;17.20;99.90;;;;;;6207523;23;20025;-87
2021/06/22 10:38:56;;;;;;;12.10;5.53;;;17.20;99.90;;;;;;6206794;23;20076;-87
2021/06/22 10:41:25;;;;;;;8.10;4.60;;;19.00;99.90;;;;;;6207885;23;20020;-87
2021/06/22 10:43:52;;;;;;;8.30;5.10;;;17.40;99.90;;;;;;6206971;23;20079;-88
2021/06/22 10:46:20;;;;;;;9.50;4.97;;;17.60;99.90;;;;;;6215432;23;20020;-87
2021/06/22 10:48:53;;;;;;;8.60;4.60;;;17.90;99.90;;;;;;6157555;23;20021;-86
2021/06/22 10:51:40;;;;;;;9.80;4.70;;;18.20;99.90;;;;;;6156022;23;20021;-88
2021/06/22 10:54:08;;;;;;;8.55;3.28;;;18.30;99.90;;;;;;6157395;23;20017;-89
2021/06/22 10:56:42;;;;;;;11.90;4.03;;;18.20;99.90;;;;;;6182972;23;20028;-88
2021/06/22 10:59:22;;;;;;;12.35;3.83;;;18.10;99.90;;;;;;6155888;23;20014;-88
2021/06/22 11:02:05;;;;;;;10.70;4.32;;;18.20;99.90;;;;;;6165692;23;20024;-86
2021/06/22 11:04:32;;;;;;;12.10;4.22;;;17.70;99.90;;;;;;6132633;23;20040;-90
2021/06/22 11:07:17;;;;;;;8.20;3.78;;;17.60;99.90;;;;;;6155678;23;20021;-87
2021/06/22 11:10:13;;;;;;;8.82;3.60;;;17.60;99.90;;;;;;6157882;23;20087;-87
2021/06/22 11:12:53;;;;;;;8.80;3.10;;;17.70;99.90;;;;;;6157715;23;20021;-88
2021/06/22 11:15:20;;;;;;;4.65;2.40;;;17.70;99.90;;;;;;6159092;23;20017;-88
2021/06/22 11:17:55;;;;;;;5.93;2.78;;;17.90;99.90;;;;;;6133931;23;20017;-88
2021/06/22 11:20:23;;;;;;;9.50;3.03;;;18.10;99.90;;;;;;6156964;23;20017;-87
2021/06/22 11:23:16;;;;;;;14.75;3.25;;;18.20;99.90;;;;;;6184929;23;20086;-89
2021/06/22 11:26:01;;;;;;;6.78;2.70;;;17.90;99.90;;;;;;6130908;23;20083;-88
2021/06/22 11:28:50;;;;;;;7.00;2.50;;;17.70;99.90;;;;;;6134758;23;20017;-87
2021/06/22 11:31:35;;;;;;;12.50;2.80;;;18.20;99.90;;;;;;6159288;23;20028;-89
2021/06/22 11:34:08;;;;;;;7.95;2.80;;;18.10;99.90;;;;;;6135702;23;20096;-88
2021/06/22 11:36:37;;;;;;;9.80;2.53;;;18.60;99.90;;;;;;6160415;23;20445;-87
2021/06/22 11:39:22;;;;;;;7.03;2.38;;;18.90;99.90;;;;;;6160949;23;20072;-88
2021/06/22 11:42:25;;;;;;;9.63;2.80;;;19.20;99.90;;;;;;6135573;23;20040;-88
2021/06/22 11:44:57;;;;;;;7.45;2.45;;;19.40;99.90;;;;;;6116460;23;20040;-89
2021/06/22 11:47:53;;;;;;;7.63;2.50;;;19.60;99.90;;;;;;6160544;23;20021;-89
2021/06/22 11:50:22;;;;;;;7.88;2.60;;;19.80;99.90;;;;;;6134879;23;20025;-88
2021/06/22 11:53:01;;;;;;;9.55;2.78;;;19.60;99.90;;;;;;6159367;23;20234;-90
2021/06/22 11:55:28;;;;;;;8.65;2.70;;;19.50;99.90;;;;;;6135267;23;20694;-89
2021/06/22 11:57:57;;;;;;;7.13;2.20;;;19.80;99.90;;;;;;6185935;23;20028;-87
2021/06/22 12:00:28;;;;;;;9.02;2.67;;;20.10;99.90;;;;;;6134456;23;20079;-88
2021/06/22 12:02:58;;;;;;;6.85;2.33;;;20.10;99.00;;;;;;6159835;23;20286;-90
2021/06/22 12:05:26;;;;;;;;;;;21.00;99.30;;;;;;6134957;23;20079;-87
2021/06/22 12:07:56;;;;;;;6.65;2.13;;;19.60;99.70;;;;;;6182978;23;19940;-88
2021/06/22 12:10:25;;;;;;;8.63;2.60;;;19.80;99.90;;;;;;6159717;23;20021;-89
2021/06/22 12:12:53;;;;;;;6.05;2.60;;;20.00;99.50;;;;;;6158944;23;20083;-88
2021/06/22 12:15:32;;;;;;;8.60;2.60;;;20.40;99.60;;;;;;6158643;23;20021;-89
2021/06/22 12:18:00;;;;;;;11.15;2.80;;;20.60;98.40;;;;;;6160255;23;20104;-88
2021/06/22 12:20:28;;;;;;;9.27;2.65;;;21.40;99.20;;;;;;6169869;23;20017;-88
2021/06/22 12:23:05;;;;;;;10.75;2.72;;;20.10;98.90;;;;;;6135222;23;20028;-88
2021/06/22 12:25:38;;;;;;;8.77;2.60;;;20.00;98.70;;;;;;6160216;23;20025;-89
2021/06/22 12:28:06;;;;;;;7.43;2.88;;;19.90;98.90;;;;;;6159142;23;20372;-88
2021/06/22 12:30:38;;;;;;;7.68;2.60;;;19.60;99.10;;;;;;6134002;23;20084;-88
2021/06/22 12:33:13;;;;;;;6.15;2.63;;;19.40;99.80;;;;;;6134692;23;20024;-88
2021/06/22 12:35:43;;;;;;;7.13;2.60;;;19.50;99.70;;;;;;6159603;23;20017;-89
2021/06/22 12:38:11;;;;;;;;;;;19.30;99.30;;;;;;6159073;23;20084;-87
2021/06/22 12:40:40;;;;;;;10.80;2.97;;;19.10;99.30;;;;;;6182978;23;19916;-87
2021/06/22 12:43:07;;;;;;;8.45;3.10;;;18.80;99.50;;;;;;6158323;23;20685;-86
2021/06/22 12:45:35;;;;;;;7.32;3.15;;;18.80;99.70;;;;;;6158283;23;20083;-87
2021/06/22 12:48:02;;;;;;;8.05;2.88;;;19.20;99.10;;;;;;6194932;23;20052;-88
2021/06/22 12:50:31;;;;;;;5.07;2.47;;;19.30;99.30;;;;;;6158263;23;20083;-87
2021/06/22 12:52:59;;;;;;;5.85;2.33;;;19.50;99.00;;;;;;6134499;23;20396;-89
2021/06/22 12:55:46;;;;;;;7.68;3.00;;;19.70;98.80;;;;;;6157776;23;20440;-88